Time;durP1;ratioP1;P1;durP2;ratioP2;P2;SDS_P1;SDS_P2;PMS_P1;PMS_P2;Temp;Humidity;BMP_temperature;BMP_pressure;BME280_temperature;BME280_humidity;BME280_pressure;Samples;Min_cycle;Max_cycle;Signal;HPM_P1;HPM_P2
2021/08/31 00:01:34;;;;;;;;;;;;;;;13.71;38.50;99699.25;5059824;28;19930;-78
2021/08/31 00:04:00;;;;;;;;;;;;;;;13.68;38.60;99699.50;5059956;28;20014;-76
2021/08/31 00:06:26;;;;;;;;;;;;;;;13.63;38.81;99706.28;5042799;28;20501;-76
2021/08/31 00:08:51;;;;;;;;;;;;;;;13.59;38.61;99711.91;5025924;28;19924;-75
2021/08/31 00:11:17;;;;;;;;;;;;;;;13.52;39.00;99705.38;5093366;28;20307;-75
2021/08/31 00:13:43;;;;;;;;;;;;;;;13.46;39.15;99710.41;5042237;28;19924;-75
2021/08/31 00:16:08;;;;;;;;;;;;;;;13.43;39.12;99708.88;5042064;28;19924;-75
2021/08/31 00:18:34;;;;;;;;;;;;;;;13.41;39.05;99712.66;5042058;28;19924;-75
2021/08/31 00:21:00;;;;;;;;;;;;;;;13.27;39.53;99721.88;5093580;28;19998;-74
2021/08/31 00:23:25;;;;;;;;;;;;;;;13.23;39.57;99713.25;5058628;28;20333;-74
2021/08/31 00:26:08;;;;;;;;;;;;;;;13.26;39.45;99715.66;5078415;28;19930;-73
2021/08/31 00:28:34;;;;;;;;;;;;;;;13.20;39.91;99713.50;5093408;28;20357;-75
2021/08/31 00:30:59;;;;;;;;;;;;;;;13.15;39.89;99718.38;5058601;28;19993;-73
2021/08/31 00:33:25;;;;;;;;;;;;;;;13.12;39.55;99716.78;5058477;28;20014;-74
2021/08/31 00:35:51;;;;;;;;;;;;;;;13.04;39.79;99710.38;5075315;28;19955;-75
2021/08/31 00:38:16;;;;;;;;;;;;;;;13.09;39.31;99705.50;5051582;28;19932;-73
2021/08/31 00:40:42;;;;;;;;;;;;;;;13.13;39.51;99715.00;5051727;28;19929;-73
2021/08/31 00:43:08;;;;;;;;;;;;;;;13.14;39.20;99705.94;5051797;28;19924;-74
2021/08/31 00:45:34;;;;;;;;;;;;;;;13.14;39.52;99705.94;5035334;28;19940;-74
2021/08/31 00:47:59;;;;;;;;;;;;;;;13.13;39.29;99702.41;5051564;28;19935;-72
2021/08/31 00:50:25;;;;;;;;;;;;;;;13.14;39.38;99700.56;5068403;28;19932;-73
2021/08/31 00:52:52;;;;;;;;;;;;;;;13.14;39.25;99705.94;5051565;28;19932;-73
2021/08/31 00:55:17;;;;;;;;;;;;;;;13.14;39.40;99716.69;5036978;28;20011;-74
2021/08/31 00:57:43;;;;;;;;;;;;;;;13.14;39.70;99716.69;5051904;28;20008;-73
2021/08/31 01:00:09;;;;;;;;;;;;;;;13.13;40.42;99706.94;5035982;28;20392;-74
2021/08/31 01:02:35;;;;;;;;;;;;;;;13.12;42.10;99697.16;5055706;28;20395;-73
2021/08/31 01:05:01;;;;;;;;;;;;;;;13.10;42.88;99702.66;5072474;28;19924;-74
2021/08/31 01:07:27;;;;;;;;;;;;;;;13.11;43.86;99708.88;5055643;28;19990;-73
2021/08/31 01:09:53;;;;;;;;;;;;;;;13.08;43.48;99709.13;5022622;28;20387;-75
2021/08/31 01:12:19;;;;;;;;;;;;;;;12.91;44.87;99715.94;5055875;28;20086;-74
2021/08/31 01:14:45;;;;;;;;;;;;;;;12.84;43.20;99720.97;5055412;28;19932;-75
2021/08/31 01:17:11;;;;;;;;;;;;;;;12.83;42.86;99719.28;5055209;28;20403;-74
2021/08/31 01:19:37;;;;;;;;;;;;;;;12.80;42.48;99719.50;5038663;28;19935;-73
2021/08/31 01:22:06;;;;;;;;;;;;;;;12.75;42.16;99713.69;5055682;28;19924;-73
2021/08/31 01:24:32;;;;;;;;;;;;;;;12.72;42.15;99707.72;5092455;28;19967;-73
2021/08/31 01:26:58;;;;;;;;;;;;;;;12.69;42.34;99703.47;5075337;28;19979;-72
2021/08/31 01:29:24;;;;;;;;;;;;;;;12.69;42.27;99706.16;5058384;28;19993;-73
2021/08/31 01:31:50;;;;;;;;;;;;;;;12.74;42.19;99714.66;5075630;28;19977;-73
2021/08/31 01:34:15;;;;;;;;;;;;;;;12.77;42.05;99724.28;5074862;28;19924;-73
2021/08/31 01:36:41;;;;;;;;;;;;;;;12.84;42.02;99718.28;5075422;28;19925;-73
2021/08/31 01:39:06;;;;;;;;;;;;;;;12.89;41.95;99723.25;5094727;28;19932;-73
2021/08/31 01:41:32;;;;;;;;;;;;;;;12.95;42.33;99728.13;5095076;28;19924;-73
2021/08/31 01:43:58;;;;;;;;;;;;;;;13.01;41.84;99737.47;5078310;28;19932;-73
2021/08/31 01:46:23;;;;;;;;;;;;;;;13.06;42.04;99736.13;5095316;28;19988;-73
2021/08/31 01:48:49;;;;;;;;;;;;;;;13.09;41.96;99735.03;5078159;28;20022;-73
2021/08/31 01:51:15;;;;;;;;;;;;;;;13.12;41.84;99730.22;5060059;28;19928;-74
2021/08/31 01:53:40;;;;;;;;;;;;;;;13.16;41.97;99744.22;5058394;28;19931;-74
2021/08/31 01:56:06;;;;;;;;;;;;;;;13.22;41.48;99735.66;5058178;28;19929;-74
2021/08/31 01:58:33;;;;;;;;;;;;;;;13.28;41.65;99740.56;5075801;28;20470;-74
2021/08/31 02:00:58;;;;;;;;;;;;;;;13.32;41.69;99747.38;5074669;28;20010;-73
2021/08/31 02:03:24;;;;;;;;;;;;;;;13.36;41.41;99740.75;5057894;28;19985;-73
2021/08/31 02:05:50;;;;;;;;;;;;;;;13.41;41.51;99736.81;5041165;28;20007;-75
2021/08/31 02:08:15;;;;;;;;;;;;;;;13.42;41.37;99746.56;5074860;28;19924;-74
2021/08/31 02:10:41;;;;;;;;;;;;;;;13.40;41.59;99743.19;5074502;28;19924;-72
2021/08/31 02:13:07;;;;;;;;;;;;;;;13.42;41.97;99742.06;5057079;28;19935;-73
2021/08/31 02:15:33;;;;;;;;;;;;;;;13.42;42.02;99736.69;5057683;28;19924;-74
2021/08/31 02:17:58;;;;;;;;;;;;;;;13.46;42.44;99743.50;5041021;28;19924;-74
2021/08/31 02:20:24;;;;;;;;;;;;;;;13.52;41.82;99745.66;5057552;28;19947;-74
2021/08/31 02:22:50;;;;;;;;;;;;;;;13.58;42.22;99755.03;5024325;28;19925;-74
2021/08/31 02:25:15;;;;;;;;;;;;;;;13.65;41.80;99756.19;5074107;28;19970;-75
2021/08/31 02:27:41;;;;;;;;;;;;;;;13.70;42.14;99762.03;5057290;28;19932;-75
2021/08/31 02:30:07;;;;;;;;;;;;;;;13.76;41.88;99760.63;5040874;28;19928;-73
2021/08/31 02:32:33;;;;;;;;;;;;;;;13.78;41.77;99759.53;5057534;28;19931;-74
2021/08/31 02:34:59;;;;;;;;;;;;;;;13.87;41.48;99763.25;5073631;28;20433;-74
2021/08/31 02:37:24;;;;;;;;;;;;;;;13.94;41.26;99760.88;5040434;28;20015;-75
2021/08/31 02:39:50;;;;;;;;;;;;;;;13.99;41.07;99766.69;5040436;28;19959;-73
2021/08/31 02:42:16;;;;;;;;;;;;;;;14.07;40.45;99770.44;5056964;28;19924;-75
2021/08/31 02:44:42;;;;;;;;;;;;;;;14.15;40.36;99776.97;5073507;28;20399;-74
2021/08/31 02:47:07;;;;;;;;;;;;;;;14.20;40.40;99770.19;5056967;28;19924;-75
2021/08/31 02:49:33;;;;;;;;;;;;;;;14.26;40.42;99775.03;5074832;28;19979;-75
2021/08/31 02:51:59;;;;;;;;;;;;;;;14.35;40.25;99773.38;5074105;28;20380;-75
2021/08/31 02:54:25;;;;;;;;;;;;;;;14.41;40.08;99766.59;5057051;28;20006;-75
2021/08/31 02:56:50;;;;;;;;;;;;;;;14.44;39.88;99769.00;5056608;28;19993;-75
2021/08/31 02:59:16;;;;;;;;;;;;;;;14.46;39.82;99772.41;5023641;28;19924;-76
2021/08/31 03:04:26;;;;;;;;;;;;;;;14.48;39.53;99776.69;5073262;28;19977;-76
2021/08/31 03:06:52;;;;;;;;;;;;;;;14.52;39.45;99780.81;5040141;28;19924;-75
2021/08/31 03:09:18;;;;;;;;;;;;;;;14.63;39.52;99790.63;5039900;28;19925;-75
2021/08/31 03:11:44;;;;;;;;;;;;;;;14.68;39.46;99782.13;5056976;28;19924;-74
2021/08/31 03:14:09;;;;;;;;;;;;;;;14.76;39.57;99788.53;5073332;28;19931;-75
2021/08/31 03:16:35;;;;;;;;;;;;;;;14.94;39.34;99790.53;5023311;28;19924;-75
2021/08/31 03:19:01;;;;;;;;;;;;;;;15.14;39.32;99794.94;5073138;28;19924;-74
2021/08/31 03:21:27;;;;;;;;;;;;;;;15.18;39.00;99784.75;5056455;28;19929;-75
2021/08/31 03:23:53;;;;;;;;;;;;;;;15.34;38.83;99792.25;5039607;28;20387;-75
2021/08/31 03:26:18;;;;;;;;;;;;;;;15.46;38.55;99796.50;5074264;28;20265;-75
2021/08/31 03:28:44;;;;;;;;;;;;;;;15.58;38.40;99794.50;5039436;28;19931;-74
2021/08/31 03:31:10;;;;;;;;;;;;;;;15.67;38.18;99794.50;5039455;28;19932;-73
2021/08/31 03:33:36;;;;;;;;;;;;;;;15.77;38.14;99792.66;5073293;28;19957;-75
2021/08/31 03:36:04;;;;;;;;;;;;;;;15.93;38.21;99783.13;5056428;28;20417;-74
2021/08/31 03:38:30;;;;;;;;;;;;;;;16.07;37.81;99790.75;5072700;28;19928;-76
2021/08/31 03:40:56;;;;;;;;;;;;;;;16.08;37.95;99789.75;5072615;28;19929;-76
2021/08/31 03:43:22;;;;;;;;;;;;;;;16.13;37.92;99798.22;5055759;28;19930;-74
2021/08/31 03:45:47;;;;;;;;;;;;;;;16.29;37.71;99794.06;5072624;28;20294;-73
2021/08/31 03:48:13;;;;;;;;;;;;;;;16.36;37.65;99787.94;5056504;28;19946;-74
2021/08/31 03:50:39;;;;;;;;;;;;;;;16.53;37.51;99791.69;5089043;28;19932;-75
2021/08/31 03:53:05;;;;;;;;;;;;;;;16.62;37.26;99790.75;5039421;28;19924;-75
2021/08/31 03:55:30;;;;;;;;;;;;;;;16.77;37.20;99787.59;5055843;28;19925;-76
2021/08/31 03:57:56;;;;;;;;;;;;;;;16.75;37.18;99783.19;5072067;28;19928;-74
2021/08/31 04:00:22;;;;;;;;;;;;;;;16.81;37.56;99788.97;5088804;28;19925;-76
2021/08/31 04:02:48;;;;;;;;;;;;;;;16.82;37.78;99791.56;5038521;28;20048;-74
2021/08/31 04:05:13;;;;;;;;;;;;;;;16.99;37.42;99789.84;5039075;28;19932;-75
2021/08/31 04:07:39;;;;;;;;;;;;;;;16.91;37.71;99797.88;5038736;28;20019;-75
2021/08/31 04:10:05;;;;;;;;;;;;;;;17.01;37.67;99795.13;5055745;28;19931;-75
2021/08/31 04:12:31;;;;;;;;;;;;;;;17.05;37.41;99786.56;5055554;28;19924;-75
2021/08/31 04:14:57;;;;;;;;;;;;;;;17.11;37.57;99785.06;5055420;28;20032;-74
2021/08/31 04:17:22;;;;;;;;;;;;;;;17.46;37.22;99779.69;5054665;28;19924;-76
2021/08/31 04:19:48;;;;;;;;;;;;;;;17.70;37.12;99780.88;5053102;28;19924;-74
2021/08/31 04:22:14;;;;;;;;;;;;;;;17.80;36.80;99783.50;5070318;28;20333;-74
2021/08/31 04:24:39;;;;;;;;;;;;;;;17.89;36.90;99774.44;5070806;28;19966;-75
2021/08/31 04:27:05;;;;;;;;;;;;;;;18.01;36.55;99773.16;5070482;28;19924;-74
2021/08/31 04:29:31;;;;;;;;;;;;;;;18.18;36.54;99774.09;5053735;28;19924;-75
2021/08/31 04:31:57;;;;;;;;;;;;;;;18.26;36.49;99781.41;5070476;28;20435;-75
2021/08/31 04:34:22;;;;;;;;;;;;;;;18.30;36.43;99771.97;5054440;28;19925;-76
2021/08/31 04:36:48;;;;;;;;;;;;;;;18.38;36.39;99769.28;5055314;28;20349;-75
2021/08/31 04:39:14;;;;;;;;;;;;;;;18.42;36.16;99776.06;5059600;28;19928;-74
2021/08/31 04:41:40;;;;;;;;;;;;;;;18.44;36.26;99776.78;5076326;28;20367;-74
2021/08/31 04:44:06;;;;;;;;;;;;;;;18.50;35.84;99767.97;5076799;28;19924;-74
2021/08/31 04:46:32;;;;;;;;;;;;;;;18.49;35.67;99771.69;5094028;28;19924;-74
2021/08/31 04:48:57;;;;;;;;;;;;;;;18.49;35.61;99770.88;5075835;28;19935;-75
2021/08/31 04:51:23;;;;;;;;;;;;;;;18.39;35.61;99770.97;5075085;28;19930;-74
2021/08/31 04:53:49;;;;;;;;;;;;;;;18.14;36.02;99765.47;5058235;28;20271;-75
2021/08/31 04:56:14;;;;;;;;;;;;;;;18.14;36.17;99768.16;5058267;28;19924;-74
2021/08/31 04:58:40;;;;;;;;;;;;;;;18.28;36.25;99774.84;5075282;28;20298;-73
2021/08/31 05:01:06;;;;;;;;;;;;;;;18.45;35.97;99770.34;5058976;28;19924;-75
2021/08/31 05:03:33;;;;;;;;;;;;;;;18.47;35.65;99772.88;5058593;28;20422;-75
2021/08/31 05:05:59;;;;;;;;;;;;;;;18.62;35.71;99777.53;5041858;28;19924;-75
2021/08/31 05:08:25;;;;;;;;;;;;;;;18.80;35.28;99777.41;5058369;28;20412;-74
2021/08/31 05:10:51;;;;;;;;;;;;;;;18.91;34.83;99770.84;5074944;28;19924;-74
2021/08/31 05:13:16;;;;;;;;;;;;;;;19.01;35.00;99771.56;5041582;28;20138;-75
2021/08/31 05:15:42;;;;;;;;;;;;;;;19.03;34.81;99769.53;5042069;28;19924;-74
2021/08/31 05:18:08;;;;;;;;;;;;;;;19.15;34.81;99770.06;5059003;28;20386;-75
2021/08/31 05:20:33;;;;;;;;;;;;;;;19.25;34.73;99761.75;5041513;28;20391;-74
2021/08/31 05:23:00;;;;;;;;;;;;;;;19.42;34.59;99752.63;5058776;28;19924;-75
2021/08/31 05:25:27;;;;;;;;;;;;;;;19.54;34.47;99756.69;5041507;28;19996;-75
2021/08/31 05:27:53;;;;;;;;;;;;;;;19.49;34.32;99750.09;5075050;28;19931;-74
2021/08/31 05:30:19;;;;;;;;;;;;;;;19.48;34.33;99746.50;5041428;28;19947;-75
2021/08/31 05:32:44;;;;;;;;;;;;;;;19.47;34.37;99755.66;5058119;28;20303;-75
2021/08/31 05:35:11;;;;;;;;;;;;;;;19.52;34.60;99756.03;5058070;28;19956;-74
2021/08/31 05:37:37;;;;;;;;;;;;;;;19.51;34.65;99761.59;5054556;28;19929;-75
2021/08/31 05:40:03;;;;;;;;;;;;;;;19.49;34.51;99764.47;5054144;28;20018;-74
2021/08/31 05:42:28;;;;;;;;;;;;;;;19.50;34.61;99763.47;5071052;28;20063;-74
2021/08/31 05:44:54;;;;;;;;;;;;;;;19.59;34.52;99770.56;5054676;28;20375;-75
2021/08/31 05:47:20;;;;;;;;;;;;;;;19.88;34.13;99774.63;5055856;28;19960;-74
2021/08/31 05:49:45;;;;;;;;;;;;;;;20.10;33.41;99768.50;5075523;28;19924;-75
2021/08/31 05:52:12;;;;;;;;;;;;;;;20.36;33.31;99767.41;5058976;28;20023;-74
2021/08/31 05:54:38;;;;;;;;;;;;;;;20.42;33.05;99766.66;5059736;28;19947;-74
2021/08/31 05:57:09;;;;;;;;;;;;;;;20.40;32.96;99767.88;5076178;28;20383;-75
2021/08/31 05:59:35;;;;;;;;;;;;;;;20.29;33.19;99760.97;5060548;28;19924;-73
2021/08/31 06:02:01;;;;;;;;;;;;;;;20.25;33.01;99767.78;5076286;28;19931;-74
2021/08/31 06:04:27;;;;;;;;;;;;;;;20.10;33.33;99773.06;5076477;28;19975;-76
2021/08/31 06:06:52;;;;;;;;;;;;;;;20.25;33.39;99765.06;5025230;28;20286;-76
2021/08/31 06:09:18;;;;;;;;;;;;;;;20.11;33.07;99759.31;5041235;28;20073;-76
2021/08/31 06:11:44;;;;;;;;;;;;;;;20.34;33.42;99753.13;5057646;28;20413;-75
2021/08/31 06:14:10;;;;;;;;;;;;;;;20.94;32.63;99752.50;5057722;28;19924;-75
2021/08/31 06:16:36;;;;;;;;;;;;;;;21.40;31.80;99749.84;5057468;28;19924;-76
2021/08/31 06:19:02;;;;;;;;;;;;;;;21.61;31.72;99743.72;5040954;28;20413;-75
2021/08/31 06:21:29;;;;;;;;;;;;;;;21.82;31.29;99759.34;5074559;28;19928;-74
2021/08/31 06:23:54;;;;;;;;;;;;;;;21.69;30.99;99759.09;5073989;28;20380;-76
2021/08/31 06:26:20;;;;;;;;;;;;;;;21.60;31.22;99754.78;5024276;28;20043;-75
2021/08/31 06:28:46;;;;;;;;;;;;;;;21.40;31.22;99759.88;5075635;28;19932;-74
2021/08/31 06:31:11;;;;;;;;;;;;;;;21.37;31.28;99754.81;5073681;28;20307;-74
2021/08/31 06:33:37;;;;;;;;;;;;;;;21.53;31.12;99760.09;5073937;28;19928;-73
2021/08/31 06:36:03;;;;;;;;;;;;;;;21.54;30.91;99757.19;5057335;28;19924;-74
2021/08/31 06:38:29;;;;;;;;;;;;;;;21.23;31.33;99761.84;5040449;28;19951;-75
2021/08/31 06:40:55;;;;;;;;;;;;;;;21.25;31.71;99759.78;5057207;28;20411;-75
2021/08/31 06:43:20;;;;;;;;;;;;;;;21.16;31.72;99758.16;5090388;28;19982;-74
2021/08/31 06:45:46;;;;;;;;;;;;;;;21.61;31.73;99751.03;5040609;28;19955;-74
2021/08/31 06:48:12;;;;;;;;;;;;;;;22.29;31.15;99750.81;5057050;28;20422;-75
2021/08/31 06:50:37;;;;;;;;;;;;;;;22.92;30.11;99751.22;5075083;28;19929;-76
2021/08/31 06:53:03;;;;;;;;;;;;;;;23.18;29.16;99747.94;5057016;28;20252;-75
2021/08/31 06:55:29;;;;;;;;;;;;;;;23.32;28.97;99738.00;5073678;28;19925;-75
2021/08/31 06:57:55;;;;;;;;;;;;;;;23.39;28.87;99741.63;5090496;28;19936;-75
2021/08/31 07:00:20;;;;;;;;;;;;;;;23.42;28.69;99733.06;5040940;28;19928;-75
2021/08/31 07:02:46;;;;;;;;;;;;;;;23.43;28.75;99734.75;5074784;28;19924;-75
2021/08/31 07:05:12;;;;;;;;;;;;;;;23.57;28.13;99730.22;5057375;28;19924;-75
2021/08/31 07:07:38;;;;;;;;;;;;;;;23.69;28.06;99733.28;5073642;28;19978;-75
2021/08/31 07:10:04;;;;;;;;;;;;;;;24.01;27.81;99718.19;5023680;28;19924;-75
2021/08/31 07:12:30;;;;;;;;;;;;;;;24.32;27.13;99725.94;5056918;28;20342;-74
2021/08/31 07:14:58;;;;;;;;;;;;;;;24.30;26.96;99728.03;5056613;28;19928;-75
2021/08/31 07:17:24;;;;;;;;;;;;;;;24.31;26.88;99735.19;5040336;28;20030;-74
2021/08/31 07:19:49;;;;;;;;;;;;;;;24.60;26.88;99728.63;5039815;28;20019;-74
2021/08/31 07:22:17;;;;;;;;;;;;;;;24.52;26.45;99725.19;5040014;28;19932;-75
2021/08/31 07:24:43;;;;;;;;;;;;;;;24.65;26.84;99720.66;5040808;28;19928;-76
2021/08/31 07:27:09;;;;;;;;;;;;;;;24.55;26.53;99709.25;5056397;28;19931;-76
2021/08/31 07:29:34;;;;;;;;;;;;;;;24.66;26.30;99711.38;5039711;28;19924;-74
2021/08/31 07:32:00;;;;;;;;;;;;;;;24.81;26.01;99711.22;5056642;28;19924;-75
2021/08/31 07:34:27;;;;;;;;;;;;;;;24.50;26.00;99713.66;5023292;28;20063;-75
2021/08/31 07:36:53;;;;;;;;;;;;;;;24.42;26.42;99710.03;5057209;28;20302;-75
2021/08/31 07:39:19;;;;;;;;;;;;;;;24.68;26.45;99705.72;5059399;28;19928;-75
2021/08/31 07:41:45;;;;;;;;;;;;;;;25.29;26.15;99696.63;5076517;28;19923;-75
2021/08/31 07:44:10;;;;;;;;;;;;;;;25.72;25.63;99698.91;5061687;28;20275;-75
2021/08/31 07:46:36;;;;;;;;;;;;;;;26.09;25.28;99694.66;5078518;28;19924;-74
2021/08/31 07:49:02;;;;;;;;;;;;;;;25.78;24.48;99698.06;5077961;28;19924;-76
2021/08/31 07:51:28;;;;;;;;;;;;;;;25.58;24.99;99689.88;5060356;28;19935;-74
2021/08/31 07:53:53;;;;;;;;;;;;;;;25.68;24.78;99682.06;5045078;28;19931;-75
2021/08/31 07:56:19;;;;;;;;;;;;;;;25.80;24.84;99685.88;5061112;28;19953;-74
2021/08/31 07:58:45;;;;;;;;;;;;;;;25.92;25.14;99675.13;5076714;28;19924;-74
2021/08/31 08:01:10;;;;;;;;;;;;;;;26.17;24.55;99678.81;5059607;28;19924;-74
2021/08/31 08:03:36;;;;;;;;;;;;;;;26.10;24.36;99675.28;5059230;28;19973;-73
2021/08/31 08:06:02;;;;;;;;;;;;;;;26.22;24.15;99672.72;5059300;28;20402;-75
2021/08/31 08:08:27;;;;;;;;;;;;;;;26.32;24.25;99656.63;5059117;28;19928;-75
2021/08/31 08:10:53;;;;;;;;;;;;;;;26.52;23.83;99667.53;5058524;28;19931;-75
2021/08/31 08:13:19;;;;;;;;;;;;;;;26.70;23.88;99664.06;5059208;28;20029;-74
2021/08/31 08:15:45;;;;;;;;;;;;;;;26.74;23.71;99665.31;5075565;28;19930;-74
2021/08/31 08:18:11;;;;;;;;;;;;;;;26.96;23.53;99660.31;5058991;28;20302;-75
2021/08/31 08:20:41;;;;;;;;;;;;;;;27.22;23.05;99666.69;5093531;28;20018;-74
2021/08/31 08:23:07;;;;;;;;;;;;;;;27.27;22.78;99664.97;5059359;28;19924;-74
2021/08/31 08:25:32;;;;;;;;;;;;;;;27.30;22.71;99661.75;5058879;28;19931;-74
2021/08/31 08:27:58;;;;;;;;;;;;;;;27.08;23.19;99654.94;5058734;28;19923;-74
2021/08/31 08:30:24;;;;;;;;;;;;;;;27.09;23.33;99641.00;5058822;28;19931;-75
2021/08/31 08:32:50;;;;;;;;;;;;;;;27.10;23.49;99641.84;5058764;28;19947;-75
2021/08/31 08:35:16;;;;;;;;;;;;;;;27.18;23.09;99647.09;5092001;28;20275;-75
2021/08/31 08:37:41;;;;;;;;;;;;;;;27.06;22.84;99640.63;5055206;28;19928;-75
2021/08/31 08:40:07;;;;;;;;;;;;;;;26.68;23.33;99632.44;5038803;28;19936;-75
2021/08/31 08:42:33;;;;;;;;;;;;;;;26.46;23.86;99629.19;5055079;28;20387;-74
2021/08/31 08:44:59;;;;;;;;;;;;;;;26.80;23.73;99630.66;5038492;28;19981;-75
2021/08/31 08:47:25;;;;;;;;;;;;;;;27.25;23.68;99634.16;5071808;28;19999;-74
2021/08/31 08:49:50;;;;;;;;;;;;;;;27.64;22.70;99632.09;5038448;28;20018;-75
2021/08/31 08:52:16;;;;;;;;;;;;;;;27.94;22.74;99636.88;5038042;28;19924;-75
2021/08/31 08:54:42;;;;;;;;;;;;;;;28.11;22.25;99632.47;5055066;28;20026;-75
2021/08/31 08:57:08;;;;;;;;;;;;;;;28.08;22.50;99632.91;5038336;28;20497;-74
2021/08/31 08:59:36;;;;;;;;;;;;;;;28.09;22.19;99634.59;5055193;28;19970;-75
2021/08/31 09:02:01;;;;;;;;;;;;;;;27.95;22.53;99633.09;5038554;28;19924;-74
2021/08/31 09:04:46;;;;;;;;;;;;;;;27.90;22.42;99635.66;5054909;28;19928;-75
2021/08/31 09:07:21;;;;;;;;;;;;;;;27.77;22.36;99632.00;5071734;28;20010;-75
2021/08/31 09:09:48;;;;;;;;;;;;;;;27.61;22.73;99629.81;5054916;28;20367;-75
2021/08/31 09:12:30;;;;;;;;;;;;;;;27.44;22.80;99626.81;5038531;28;20462;-75
2021/08/31 09:14:56;;;;;;;;;;;;;;;27.17;23.19;99620.72;5055280;28;20387;-75
2021/08/31 09:17:21;;;;;;;;;;;;;;;27.24;23.08;99627.00;5038234;28;19924;-75
2021/08/31 09:19:47;;;;;;;;;;;;;;;26.96;23.16;99615.56;5054982;28;19928;-74
2021/08/31 09:22:23;;;;;;;;;;;;;;;26.50;23.15;99616.72;5041203;28;19968;-75
2021/08/31 09:25:15;;;;;;;;;;;;;;;26.62;23.40;99610.31;5059029;28;19932;-74
2021/08/31 09:27:42;;;;;;;;;;;;;;;26.71;23.45;99593.63;5057575;28;20337;-75
2021/08/31 09:30:18;;;;;;;;;;;;;;;26.84;23.49;99597.09;5042014;28;20074;-74
2021/08/31 09:33:00;;;;;;;;;;;;;;;27.05;23.26;99590.41;5042305;28;19931;-75
2021/08/31 09:35:31;;;;;;;;;;;;;;;27.31;23.15;99599.50;5075300;28;20019;-75
2021/08/31 09:37:58;;;;;;;;;;;;;;;27.55;22.62;99595.84;5059170;28;20288;-75
2021/08/31 09:40:27;;;;;;;;;;;;;;;27.66;22.49;99597.00;5058581;28;19943;-75
2021/08/31 09:43:04;;;;;;;;;;;;;;;27.98;22.68;99583.13;5058795;28;19930;-74
2021/08/31 09:45:31;;;;;;;;;;;;;;;28.44;21.83;99590.81;5058840;28;20343;-75
2021/08/31 09:47:57;;;;;;;;;;;;;;;28.69;21.62;99579.63;5058531;28;19932;-75
2021/08/31 09:50:31;;;;;;;;;;;;;;;29.19;21.12;99568.28;5058611;28;19981;-75
2021/08/31 09:53:01;;;;;;;;;;;;;;;29.47;20.74;99563.97;5058817;28;19928;-76
2021/08/31 09:55:27;;;;;;;;;;;;;;;29.67;20.39;99563.59;5058300;28;19977;-76
2021/08/31 09:57:53;;;;;;;;;;;;;;;29.93;20.43;99556.72;5041512;28;19924;-76
2021/08/31 10:00:19;;;;;;;;;;;;;;;30.13;20.42;99554.38;5041478;28;19978;-74
2021/08/31 10:02:48;;;;;;;;;;;;;;;30.30;19.40;99550.84;5025135;28;19924;-75
2021/08/31 10:05:14;;;;;;;;;;;;;;;30.56;19.31;99553.00;5074978;28;19931;-75
2021/08/31 10:07:40;;;;;;;;;;;;;;;30.82;18.93;99551.56;5075983;28;19924;-75
2021/08/31 10:10:06;;;;;;;;;;;;;;;30.78;18.78;99552.31;5058361;28;19925;-75
2021/08/31 10:12:32;;;;;;;;;;;;;;;30.75;19.11;99552.81;5041322;28;19924;-75
2021/08/31 10:14:58;;;;;;;;;;;;;;;30.82;18.99;99547.97;5057663;28;19928;-75
2021/08/31 10:17:24;;;;;;;;;;;;;;;30.69;19.17;99532.53;5024546;28;20025;-75
2021/08/31 10:19:50;;;;;;;;;;;;;;;30.66;19.41;99536.63;5074176;28;20295;-76
2021/08/31 10:22:16;;;;;;;;;;;;;;;30.18;19.52;99539.88;5074826;28;19924;-75
2021/08/31 10:24:42;;;;;;;;;;;;;;;30.11;19.51;99531.72;5057720;28;19924;-75
2021/08/31 10:27:27;;;;;;;;;;;;;;;30.37;19.71;99535.84;5057931;28;20036;-75
2021/08/31 10:29:53;;;;;;;;;;;;;;;30.19;19.49;99520.31;5073976;28;19924;-74
2021/08/31 10:32:30;;;;;;;;;;;;;;;30.29;19.64;99521.63;5057227;28;19924;-74
2021/08/31 10:34:56;;;;;;;;;;;;;;;30.26;19.46;99524.88;5057938;28;20015;-75
2021/08/31 10:37:22;;;;;;;;;;;;;;;30.50;19.43;99518.13;5076743;28;19963;-74
2021/08/31 10:39:49;;;;;;;;;;;;;;;31.00;19.08;99517.34;5061167;28;19932;-74
2021/08/31 10:42:42;;;;;;;;;;;;;;;31.43;18.36;99526.84;5043946;28;19993;-75
2021/08/31 10:45:27;;;;;;;;;;;;;;;31.69;18.29;99520.56;5075346;28;19946;-74
2021/08/31 10:47:53;;;;;;;;;;;;;;;31.61;18.30;99518.25;5044158;28;19959;-75
2021/08/31 10:50:21;;;;;;;;;;;;;;;31.75;18.35;99520.66;5061161;28;19970;-74
2021/08/31 10:52:51;;;;;;;;;;;;;;;32.02;17.81;99532.63;5043538;28;20444;-74
2021/08/31 10:55:23;;;;;;;;;;;;;;;31.54;17.79;99534.19;5061138;28;19924;-75
2021/08/31 10:57:50;;;;;;;;;;;;;;;31.67;17.93;99538.50;5060836;28;19931;-74
2021/08/31 11:00:15;;;;;;;;;;;;;;;31.75;17.74;99531.72;5060231;28;19924;-74
2021/08/31 11:02:48;;;;;;;;;;;;;;;31.50;18.24;99534.94;5043725;28;19931;-75
2021/08/31 11:05:26;;;;;;;;;;;;;;;31.63;18.05;99538.19;5060337;28;19931;-74
2021/08/31 11:07:59;;;;;;;;;;;;;;;31.38;18.44;99524.03;5060114;28;19924;-73
2021/08/31 11:10:25;;;;;;;;;;;;;;;30.81;18.73;99529.75;5043542;28;19924;-74
2021/08/31 11:12:51;;;;;;;;;;;;;;;30.23;19.28;99524.25;5060035;28;19973;-75
2021/08/31 11:15:20;;;;;;;;;;;;;;;29.79;19.79;99519.47;5060070;28;19928;-76
2021/08/31 11:17:47;;;;;;;;;;;;;;;29.92;20.05;99522.81;5043045;28;19978;-74
2021/08/31 11:20:19;;;;;;;;;;;;;;;29.97;19.61;99519.31;5060034;28;20283;-74
2021/08/31 11:22:45;;;;;;;;;;;;;;;29.63;19.82;99524.69;5094424;28;19928;-73
2021/08/31 11:25:11;;;;;;;;;;;;;;;29.48;19.93;99524.31;5059842;28;20019;-74
2021/08/31 11:27:56;;;;;;;;;;;;;;;29.38;20.43;99518.59;5059993;28;19971;-73
2021/08/31 11:30:22;;;;;;;;;;;;;;;29.23;20.60;99513.59;5060065;28;19934;-74
2021/08/31 11:32:47;;;;;;;;;;;;;;;29.69;20.23;99517.38;5076679;28;19928;-74
2021/08/31 11:35:13;;;;;;;;;;;;;;;30.23;19.74;99513.22;5042644;28;20267;-74
2021/08/31 11:37:51;;;;;;;;;;;;;;;30.56;19.35;99508.03;5042544;28;19932;-75
2021/08/31 11:40:26;;;;;;;;;;;;;;;30.86;19.24;99510.50;5076296;28;20431;-74
2021/08/31 11:42:53;;;;;;;;;;;;;;;30.34;19.09;99503.22;5042658;28;20009;-75
2021/08/31 11:45:19;;;;;;;;;;;;;;;29.97;19.74;99502.78;5058173;28;19924;-74
2021/08/31 11:47:45;;;;;;;;;;;;;;;30.46;19.25;99501.22;5059098;28;19931;-74
2021/08/31 11:50:11;;;;;;;;;;;;;;;29.18;20.30;99497.75;5059466;28;19931;-74
2021/08/31 11:52:37;;;;;;;;;;;;;;;29.41;20.49;99493.31;5058925;28;19966;-75
2021/08/31 11:55:02;;;;;;;;;;;;;;;30.23;19.93;99487.59;5042507;28;20012;-74
2021/08/31 11:57:32;;;;;;;;;;;;;;;30.77;19.49;99487.16;5058915;28;20383;-75
2021/08/31 11:59:57;;;;;;;;;;;;;;;31.90;18.67;99471.09;5042801;28;19924;-75
2021/08/31 12:02:27;;;;;;;;;;;;;;;32.59;17.84;99470.41;5042261;28;19947;-75
2021/08/31 12:04:53;;;;;;;;;;;;;;;31.94;17.78;99466.72;5059384;28;19997;-75
2021/08/31 12:07:19;;;;;;;;;;;;;;;31.56;18.26;99464.88;5058755;28;19986;-76
2021/08/31 12:09:46;;;;;;;;;;;;;;;31.50;18.15;99475.00;5058983;28;19924;-74
2021/08/31 12:12:12;;;;;;;;;;;;;;;30.91;18.83;99463.63;5058705;28;19931;-75
2021/08/31 12:14:38;;;;;;;;;;;;;;;30.75;18.85;99473.63;5042103;28;19928;-75
2021/08/31 12:17:04;;;;;;;;;;;;;;;31.50;18.39;99465.88;5058901;28;19967;-75
2021/08/31 12:19:30;;;;;;;;;;;;;;;32.57;17.81;99465.16;5042253;28;20433;-75
2021/08/31 12:22:05;;;;;;;;;;;;;;;33.32;17.32;99465.09;5041875;28;20317;-75
2021/08/31 12:24:31;;;;;;;;;;;;;;;32.93;17.33;99464.56;5041967;28;19924;-74
2021/08/31 12:27:07;;;;;;;;;;;;;;;32.56;17.64;99457.09;5058796;28;19935;-74
2021/08/31 12:29:46;;;;;;;;;;;;;;;31.71;17.93;99454.00;5058556;28;19928;-75
2021/08/31 12:32:12;;;;;;;;;;;;;;;31.63;18.24;99455.28;5041935;28;19941;-74
2021/08/31 12:34:38;;;;;;;;;;;;;;;31.43;18.49;99443.97;5075025;28;19940;-75
2021/08/31 12:37:23;;;;;;;;;;;;;;;31.16;18.34;99433.66;5093327;28;19928;-76
2021/08/31 12:39:49;;;;;;;;;;;;;;;31.34;18.70;99431.72;5058613;28;19924;-76
2021/08/31 12:42:16;;;;;;;;;;;;;;;32.30;18.24;99425.56;5058139;28;19974;-74
2021/08/31 12:44:48;;;;;;;;;;;;;;;33.64;17.08;99430.94;5041733;28;19931;-75
2021/08/31 12:47:19;;;;;;;;;;;;;;;34.46;16.13;99421.66;5075179;28;19930;-75
2021/08/31 12:49:45;;;;;;;;;;;;;;;34.89;16.13;99438.00;5042757;28;19924;-75